createdAt,value
2022-09-14T00:01:45.126Z,0.98
2022-09-14T00:04:16.078Z,1.50
2022-09-14T00:06:46.485Z,1.35
2022-09-14T00:09:16.634Z,1.13
2022-09-14T00:11:44.934Z,1.15
2022-09-14T00:14:13.626Z,1.17
2022-09-14T00:16:43.763Z,1.35
2022-09-14T00:19:19.052Z,1.05
2022-09-14T00:21:52.793Z,1.20
2022-09-14T00:24:22.290Z,0.90
2022-09-14T00:26:51.333Z,0.98
2022-09-14T00:29:20.573Z,0.98
2022-09-14T00:31:49.122Z,0.95
2022-09-14T00:34:19.060Z,0.90
2022-09-14T00:36:51.311Z,0.77
2022-09-14T00:39:21.460Z,0.80
2022-09-14T00:41:50.613Z,0.93
2022-09-14T00:44:56.096Z,0.88
2022-09-14T00:47:24.749Z,0.80
2022-09-14T00:49:53.237Z,0.80
2022-09-14T00:52:27.527Z,0.70
2022-09-14T00:54:59.468Z,0.75
2022-09-14T00:57:31.575Z,0.80
2022-09-14T01:00:00.826Z,0.80
2022-09-14T01:02:29.675Z,0.80
2022-09-14T01:04:58.489Z,0.95
2022-09-14T01:07:54.108Z,0.90
2022-09-14T01:10:32.578Z,0.90
2022-09-14T01:13:14.412Z,0.63
2022-09-14T01:15:53.638Z,1.02
2022-09-14T01:18:27.855Z,0.80
2022-09-14T01:21:01.859Z,0.70
2022-09-14T01:23:42.412Z,0.70
2022-09-14T01:26:40.403Z,0.90
2022-09-14T01:29:16.818Z,0.50
2022-09-14T01:31:52.175Z,1.00
2022-09-14T01:34:27.718Z,1.23
2022-09-14T01:37:02.502Z,0.93
2022-09-14T01:39:35.594Z,0.82
2022-09-14T01:42:04.952Z,0.88
2022-09-14T01:44:39.211Z,0.70
2022-09-14T01:47:14.069Z,0.80
2022-09-14T01:49:45.856Z,0.70
2022-09-14T01:52:17.712Z,0.60
2022-09-14T01:54:51.371Z,0.60
2022-09-14T01:57:25.757Z,0.90
2022-09-14T01:59:59.493Z,0.93
2022-09-14T02:02:32.536Z,0.70
2022-09-14T02:05:08.668Z,0.65
2022-09-14T02:07:39.022Z,0.63
2022-09-14T02:10:11.898Z,0.70
2022-09-14T02:12:41.266Z,0.73
2022-09-14T02:15:13.969Z,0.90
2022-09-14T02:17:43.423Z,0.73
2022-09-14T02:22:46.325Z,1.10
2022-09-14T02:25:15.267Z,0.70
2022-09-14T02:27:43.566Z,1.25
2022-09-14T02:34:07.778Z,0.55
2022-09-14T02:36:46.633Z,0.80
2022-09-14T02:39:24.533Z,0.70
2022-09-14T02:42:01.441Z,1.13
2022-09-14T02:44:37.133Z,0.80
2022-09-14T02:47:11.458Z,1.42
2022-09-14T02:49:49.460Z,0.77
2022-09-14T02:52:24.771Z,0.70
2022-09-14T02:54:59.209Z,0.70
2022-09-14T02:57:27.859Z,0.50
2022-09-14T02:59:56.521Z,0.75
2022-09-14T03:02:24.890Z,0.85
2022-09-14T03:04:55.326Z,0.90
2022-09-14T03:07:23.819Z,0.93
2022-09-14T03:09:52.035Z,0.98
2022-09-14T03:12:20.324Z,0.80
2022-09-14T03:14:48.729Z,0.90
2022-09-14T03:17:16.945Z,0.85
2022-09-14T03:19:45.247Z,1.20
2022-09-14T03:22:15.223Z,0.70
2022-09-14T03:24:43.352Z,0.93
2022-09-14T03:27:11.664Z,0.73
2022-09-14T03:29:40.170Z,0.70
2022-09-14T03:32:11.022Z,0.82
2022-09-14T03:34:39.602Z,0.75
2022-09-14T03:37:08.338Z,1.08
2022-09-14T03:39:37.959Z,1.10
2022-09-14T03:42:06.522Z,0.70
2022-09-14T03:44:34.945Z,0.70
2022-09-14T03:47:03.189Z,0.85
2022-09-14T03:49:31.517Z,0.95
2022-09-14T03:52:00.031Z,1.10
2022-09-14T03:54:28.340Z,0.60
2022-09-14T03:56:58.040Z,0.90
2022-09-14T03:59:26.790Z,0.77
2022-09-14T04:01:55.030Z,0.85
2022-09-14T04:04:23.438Z,0.75
2022-09-14T04:06:51.906Z,1.13
2022-09-14T04:09:20.420Z,1.20
2022-09-14T04:11:48.960Z,0.73
2022-09-14T04:14:18.837Z,0.80
2022-09-14T04:16:47.111Z,0.80
2022-09-14T04:19:15.292Z,1.00
2022-09-14T04:21:43.816Z,0.70
2022-09-14T04:24:15.624Z,0.80
2022-09-14T04:26:45.740Z,1.17
2022-09-14T04:29:15.023Z,0.60
2022-09-14T04:31:44.846Z,0.80
2022-09-14T04:34:14.830Z,0.68
2022-09-14T04:36:43.627Z,0.90
2022-09-14T04:39:14.145Z,0.60
2022-09-14T04:41:43.133Z,0.75
2022-09-14T04:44:17.861Z,0.90
2022-09-14T04:46:48.015Z,0.70
2022-09-14T04:49:18.778Z,1.10
2022-09-14T04:51:47.230Z,1.08
2022-09-14T04:54:17.667Z,1.00
2022-09-14T04:56:46.060Z,0.93
2022-09-14T04:59:15.513Z,0.90
2022-09-14T05:01:45.898Z,0.70
2022-09-14T05:04:15.954Z,0.80
2022-09-14T05:06:45.892Z,0.52
2022-09-14T05:09:16.020Z,0.85
2022-09-14T05:11:44.762Z,0.80
2022-09-14T05:14:14.849Z,0.52
2022-09-14T05:16:44.859Z,0.88
2022-09-14T05:19:16.940Z,0.93
2022-09-14T05:21:46.174Z,0.50
2022-09-14T05:24:15.923Z,0.70
2022-09-14T05:26:44.849Z,0.70
2022-09-14T05:29:14.806Z,0.70
2022-09-14T05:31:43.270Z,1.05
2022-09-14T05:34:12.844Z,0.80
2022-09-14T05:36:42.852Z,0.80
2022-09-14T05:39:11.526Z,1.15
2022-09-14T05:41:39.803Z,1.00
2022-09-14T05:44:08.698Z,0.70
2022-09-14T05:46:36.880Z,0.70
2022-09-14T05:49:04.999Z,1.05
2022-09-14T05:51:33.961Z,0.98
2022-09-14T05:54:09.377Z,0.60
2022-09-14T05:56:37.757Z,0.50
2022-09-14T05:59:05.839Z,0.75
2022-09-14T06:01:34.150Z,0.60
2022-09-14T06:04:03.943Z,0.70
2022-09-14T06:06:33.351Z,0.90
2022-09-14T06:09:03.139Z,0.60
2022-09-14T06:11:33.814Z,1.08
2022-09-14T06:14:01.937Z,0.50
2022-09-14T06:16:30.312Z,0.70
2022-09-14T06:19:00.260Z,0.70
2022-09-14T06:21:30.733Z,0.60
2022-09-14T06:23:59.445Z,0.57
2022-09-14T06:26:29.106Z,0.35
2022-09-14T06:28:57.835Z,1.25
2022-09-14T06:31:25.979Z,0.20
2022-09-14T06:33:55.008Z,0.50
2022-09-14T06:36:24.988Z,0.50
2022-09-14T06:38:54.164Z,0.30
2022-09-14T06:41:23.972Z,0.43
2022-09-14T06:43:55.999Z,0.50
2022-09-14T06:46:26.595Z,0.50
2022-09-14T06:48:57.612Z,0.52
2022-09-14T06:51:28.823Z,0.20
2022-09-14T06:53:59.526Z,0.25
2022-09-14T06:56:28.010Z,0.20
2022-09-14T06:58:59.006Z,0.13
2022-09-14T07:01:27.744Z,0.20
2022-09-14T07:03:57.216Z,0.20
2022-09-14T07:08:55.845Z,0.80
2022-09-14T07:11:26.863Z,0.40
2022-09-14T07:13:57.261Z,0.50
2022-09-14T07:16:27.540Z,0.30
2022-09-14T07:18:56.328Z,0.40
2022-09-14T07:21:25.515Z,0.30
2022-09-14T07:26:24.397Z,0.20
2022-09-14T07:28:55.473Z,0.35
2022-09-14T07:31:25.643Z,0.40
2022-09-14T07:33:56.377Z,1.00
2022-09-14T07:36:26.364Z,0.82
2022-09-14T07:38:55.095Z,1.25
2022-09-14T07:41:25.157Z,0.60
2022-09-14T07:43:55.501Z,0.32
2022-09-14T07:46:24.663Z,0.40
2022-09-14T07:48:57.776Z,0.30
2022-09-14T07:51:26.851Z,0.40
2022-09-14T07:53:55.882Z,0.60
2022-09-14T07:56:25.960Z,0.47
2022-09-14T07:59:03.311Z,0.57
2022-09-14T08:01:39.962Z,0.80
2022-09-14T08:04:09.868Z,0.90
2022-09-14T08:06:40.759Z,0.50
2022-09-14T08:09:09.650Z,0.60
2022-09-14T08:11:38.231Z,0.40
2022-09-14T08:14:09.774Z,0.90
2022-09-14T08:16:38.860Z,0.60
2022-09-14T08:19:12.693Z,0.52
2022-09-14T08:21:46.258Z,0.70
2022-09-14T08:24:16.664Z,0.45
2022-09-14T08:26:46.187Z,1.30
2022-09-14T08:29:15.540Z,0.68
2022-09-14T08:31:45.599Z,0.70
2022-09-14T08:34:17.493Z,0.55
2022-09-14T08:36:47.504Z,0.70
2022-09-14T08:39:17.355Z,0.55
2022-09-14T08:41:51.525Z,0.52
2022-09-14T08:44:25.060Z,0.50
2022-09-14T08:46:56.957Z,0.68
2022-09-14T08:49:44.308Z,0.60
2022-09-14T08:52:23.957Z,0.30
2022-09-14T08:54:56.791Z,0.38
2022-09-14T08:57:33.694Z,0.43
2022-09-14T09:00:10.213Z,0.50
2022-09-14T09:02:56.952Z,0.60
2022-09-14T09:05:37.443Z,0.35
2022-09-14T09:08:18.521Z,0.50
2022-09-14T09:10:48.199Z,0.40
2022-09-14T09:13:21.644Z,0.20
2022-09-14T09:15:52.730Z,0.10
2022-09-14T09:18:27.316Z,0.30
2022-09-14T09:21:04.232Z,0.50
2022-09-14T09:23:33.824Z,0.30
2022-09-14T09:26:05.907Z,0.40
2022-09-14T09:28:35.682Z,0.30
2022-09-14T09:31:11.449Z,0.30
2022-09-14T09:33:40.896Z,0.40
2022-09-14T09:36:14.846Z,0.50
2022-09-14T09:38:43.757Z,0.20
2022-09-14T09:41:20.924Z,0.38
2022-09-14T09:44:01.152Z,0.40
2022-09-14T09:46:31.472Z,0.20
2022-09-14T09:49:00.780Z,0.40
2022-09-14T09:51:32.525Z,0.20
2022-09-14T09:54:08.806Z,0.28
2022-09-14T09:56:40.215Z,0.25
2022-09-14T09:59:24.295Z,0.40
2022-09-14T10:01:55.848Z,0.30
2022-09-14T10:04:28.012Z,0.30
2022-09-14T10:06:58.658Z,0.38
2022-09-14T10:09:28.937Z,0.50
2022-09-14T10:12:02.003Z,0.40
2022-09-14T10:14:32.513Z,0.20
2022-09-14T10:17:08.508Z,0.50
2022-09-14T10:19:37.832Z,0.38
2022-09-14T10:22:24.254Z,0.57
2022-09-14T10:24:58.174Z,0.40
2022-09-14T10:27:41.434Z,0.40
2022-09-14T10:30:19.083Z,0.40
2022-09-14T10:33:02.188Z,0.30
2022-09-14T10:35:42.376Z,0.35
2022-09-14T10:38:30.413Z,0.52
2022-09-14T10:41:09.948Z,0.40
2022-09-14T10:46:17.982Z,0.47
2022-09-14T10:49:05.629Z,0.32
2022-09-14T10:51:46.307Z,0.45
2022-09-14T10:54:31.903Z,0.50
2022-09-14T10:57:12.330Z,0.40
2022-09-14T10:59:53.478Z,0.43
2022-09-14T11:02:54.991Z,0.25
2022-09-14T11:05:26.876Z,0.50
2022-09-14T11:08:04.902Z,0.30
2022-09-14T11:10:48.063Z,0.30
2022-09-14T11:13:38.949Z,0.50
2022-09-14T11:16:18.117Z,0.60
2022-09-14T11:18:56.464Z,0.45
2022-09-14T11:21:37.053Z,0.20
2022-09-14T11:24:13.998Z,0.40
2022-09-14T11:26:46.854Z,0.90
2022-09-14T11:29:24.586Z,0.60
2022-09-14T11:32:17.028Z,0.40
2022-09-14T11:34:54.721Z,0.45
2022-09-14T11:37:31.472Z,0.50
2022-09-14T11:40:07.985Z,0.40
2022-09-14T11:42:46.227Z,0.40
2022-09-14T11:45:23.533Z,0.70
2022-09-14T11:48:01.824Z,0.30
2022-09-14T11:50:32.891Z,0.43
2022-09-14T11:53:05.815Z,0.40
2022-09-14T11:55:34.842Z,0.40
2022-09-14T11:58:07.323Z,0.20
2022-09-14T12:01:00.789Z,0.20
2022-09-14T12:03:51.918Z,0.20
2022-09-14T12:06:47.622Z,0.40
2022-09-14T12:09:41.569Z,0.30
2022-09-14T12:12:45.324Z,0.55
2022-09-14T12:15:34.119Z,0.35
2022-09-14T12:18:33.451Z,0.35
2022-09-14T12:21:08.245Z,0.47
2022-09-14T12:23:45.907Z,0.50
2022-09-14T12:26:31.160Z,0.30
2022-09-14T12:29:05.851Z,0.80
2022-09-14T12:31:55.421Z,0.60
2022-09-14T12:34:25.117Z,0.40
2022-09-14T12:37:33.511Z,0.60
2022-09-14T12:40:36.522Z,1.23
2022-09-14T12:43:48.205Z,0.30
2022-09-14T12:46:38.662Z,0.47
2022-09-14T12:49:39.581Z,0.52
2022-09-14T12:52:39.361Z,0.40
2022-09-14T12:55:26.110Z,0.60
2022-09-14T12:58:01.889Z,0.77
2022-09-14T13:00:39.684Z,0.60
2022-09-14T13:03:35.774Z,0.40
2022-09-14T13:06:04.065Z,0.50
2022-09-14T13:08:34.213Z,0.57
2022-09-14T13:11:02.312Z,0.60
2022-09-14T13:13:34.516Z,0.60
2022-09-14T13:16:06.091Z,0.70
2022-09-14T13:18:37.311Z,0.50
2022-09-14T13:21:19.476Z,1.00
2022-09-14T13:23:49.410Z,1.02
2022-09-14T13:26:20.883Z,0.85
2022-09-14T13:28:51.977Z,0.88
2022-09-14T13:31:26.911Z,0.65
2022-09-14T13:33:57.195Z,1.02
2022-09-14T13:36:28.707Z,0.63
2022-09-14T13:39:01.743Z,0.50
2022-09-14T13:41:32.341Z,0.60
2022-09-14T13:44:01.424Z,0.47
2022-09-14T13:46:30.187Z,0.55
2022-09-14T13:48:58.691Z,0.52
2022-09-14T13:51:31.480Z,0.40
2022-09-14T13:54:18.945Z,0.60
2022-09-14T13:56:47.599Z,0.50
2022-09-14T13:59:23.399Z,0.80
2022-09-14T14:01:59.111Z,0.82
2022-09-14T14:04:33.647Z,0.98
2022-09-14T14:07:06.821Z,0.73
2022-09-14T14:09:50.891Z,0.77
2022-09-14T14:12:25.371Z,0.70
2022-09-14T14:15:00.247Z,1.10
2022-09-14T14:17:37.918Z,0.80
2022-09-14T14:20:34.978Z,0.80
2022-09-14T14:23:20.062Z,0.93
2022-09-14T14:25:54.449Z,0.52
2022-09-14T14:28:25.883Z,0.55
2022-09-14T14:30:55.884Z,0.80
2022-09-14T14:33:24.296Z,0.50
2022-09-14T14:35:54.627Z,0.70
2022-09-14T14:38:25.097Z,0.70
2022-09-14T14:40:57.623Z,0.60
2022-09-14T14:43:27.437Z,0.70
2022-09-14T14:45:58.771Z,0.63
2022-09-14T14:48:27.805Z,0.90
2022-09-14T14:50:56.355Z,0.60
2022-09-14T14:53:24.798Z,0.83
2022-09-14T14:55:54.632Z,0.70
2022-09-14T14:58:24.059Z,0.70
2022-09-14T15:00:53.019Z,0.80
2022-09-14T15:03:21.433Z,0.55
2022-09-14T15:05:50.465Z,1.03
2022-09-14T15:08:21.061Z,0.70
2022-09-14T15:10:49.789Z,0.73
2022-09-14T15:13:19.499Z,0.70
2022-09-14T15:15:47.991Z,0.77
2022-09-14T15:18:16.398Z,0.50
2022-09-14T15:20:44.554Z,0.70
2022-09-14T15:23:14.291Z,0.88
2022-09-14T15:25:42.756Z,0.68
2022-09-14T15:28:10.863Z,0.73
2022-09-14T15:30:41.781Z,0.60
2022-09-14T15:33:10.275Z,0.73
2022-09-14T15:35:39.187Z,0.70
2022-09-14T15:38:07.566Z,0.80
2022-09-14T15:40:36.229Z,0.80
2022-09-14T15:43:04.621Z,0.90
2022-09-14T15:45:32.782Z,0.93
2022-09-14T15:48:03.403Z,0.67
2022-09-14T15:50:31.517Z,0.68
2022-09-14T15:53:02.659Z,0.93
2022-09-14T15:55:31.342Z,0.90
2022-09-14T15:57:59.521Z,0.90
2022-09-14T16:00:28.137Z,1.50
2022-09-14T16:02:56.632Z,0.82
2022-09-14T16:05:26.321Z,1.08
2022-09-14T16:07:54.783Z,1.13
2022-09-14T16:10:25.697Z,1.02
2022-09-14T16:12:56.266Z,0.70
2022-09-14T16:15:25.027Z,0.93
2022-09-14T16:17:53.770Z,0.73
2022-09-14T16:20:22.336Z,0.80
2022-09-14T16:22:52.502Z,0.70
2022-09-14T16:25:20.732Z,0.88
2022-09-14T16:27:49.112Z,0.70
2022-09-14T16:30:17.716Z,1.10
2022-09-14T16:32:45.995Z,0.90
2022-09-14T16:35:14.182Z,0.80
2022-09-14T16:37:42.697Z,0.70
2022-09-14T16:40:13.961Z,0.70
2022-09-14T16:42:42.367Z,1.00
2022-09-14T16:45:11.290Z,0.87
2022-09-14T16:47:39.463Z,0.80
2022-09-14T16:50:07.950Z,1.40
2022-09-14T16:52:36.496Z,1.10
2022-09-14T16:55:05.641Z,1.17
2022-09-14T16:57:35.909Z,1.52
2022-09-14T17:00:05.891Z,1.08
2022-09-14T17:02:34.346Z,0.95
2022-09-14T17:05:02.876Z,0.97
2022-09-14T17:07:31.735Z,0.80
2022-09-14T17:10:00.042Z,1.10
2022-09-14T17:12:28.554Z,0.90
2022-09-14T17:14:59.242Z,1.08
2022-09-14T17:17:27.532Z,1.10
2022-09-14T17:19:56.828Z,0.90
2022-09-14T17:22:25.581Z,1.02
2022-09-14T17:24:54.087Z,0.83
2022-09-14T17:27:22.587Z,0.80
2022-09-14T17:29:51.391Z,1.70
2022-09-14T17:32:21.314Z,1.30
2022-09-14T17:34:49.959Z,1.00
2022-09-14T17:37:18.555Z,1.05
2022-09-14T17:39:46.951Z,0.88
2022-09-14T17:42:15.153Z,1.63
2022-09-14T17:44:44.872Z,0.85
2022-09-14T17:47:13.653Z,1.20
2022-09-14T17:49:45.179Z,1.83
2022-09-14T17:52:14.195Z,1.20
2022-09-14T17:54:42.629Z,1.50
2022-09-14T17:57:11.069Z,1.63
2022-09-14T17:59:39.767Z,1.40
2022-09-14T18:02:10.980Z,1.33
2022-09-14T18:04:39.444Z,1.30
2022-09-14T18:07:10.851Z,1.40
2022-09-14T18:09:40.354Z,1.13
2022-09-14T18:14:39.368Z,0.93
2022-09-14T18:17:07.983Z,1.00
2022-09-14T18:19:36.532Z,1.30
2022-09-14T18:22:05.373Z,0.98
2022-09-14T18:24:35.723Z,1.02
2022-09-14T18:27:04.199Z,1.00
2022-09-14T18:29:33.897Z,0.93
2022-09-14T18:32:04.341Z,0.98
2022-09-14T18:34:32.938Z,0.82
2022-09-14T18:37:01.399Z,1.20
2022-09-14T18:39:29.851Z,1.00
2022-09-14T18:42:00.111Z,1.20
2022-09-14T18:44:28.754Z,1.23
2022-09-14T18:46:56.967Z,1.02
2022-09-14T18:49:25.862Z,1.50
2022-09-14T18:51:54.126Z,1.15
2022-09-14T18:54:26.828Z,1.40
2022-09-14T18:56:55.913Z,1.33
2022-09-14T18:59:25.619Z,1.15
2022-09-14T19:01:53.818Z,1.25
2022-09-14T19:04:23.202Z,1.10
2022-09-14T19:06:51.604Z,1.55
2022-09-14T19:09:19.829Z,1.20
2022-09-14T19:11:48.580Z,1.30
2022-09-14T19:14:17.569Z,1.20
2022-09-14T19:16:47.196Z,1.30
2022-09-14T19:19:18.089Z,1.33
2022-09-14T19:21:46.777Z,1.58
2022-09-14T19:24:17.115Z,1.35
2022-09-14T19:26:47.805Z,1.48
2022-09-14T19:29:19.461Z,1.40
2022-09-14T19:31:51.795Z,1.30
2022-09-14T19:34:21.075Z,1.25
2022-09-14T19:36:49.870Z,1.23
2022-09-14T19:39:18.605Z,1.10
2022-09-14T19:41:47.381Z,1.30
2022-09-14T19:44:16.968Z,1.25
2022-09-14T19:46:45.722Z,1.30
2022-09-14T19:49:19.401Z,1.52
2022-09-14T19:51:48.133Z,2.00
2022-09-14T19:54:16.937Z,1.40
2022-09-14T19:56:46.175Z,1.52
2022-09-14T20:01:42.669Z,1.48
2022-09-14T20:04:11.515Z,1.67
2022-09-14T20:06:44.203Z,1.52
2022-09-14T20:09:16.089Z,1.65
2022-09-14T20:11:46.580Z,1.50
2022-09-14T20:14:17.372Z,2.15
2022-09-14T20:16:47.545Z,1.73
2022-09-14T20:19:17.759Z,1.73
2022-09-14T20:21:48.544Z,1.58
2022-09-14T20:24:19.338Z,1.40
2022-09-14T20:26:49.465Z,1.80
2022-09-14T20:29:20.763Z,1.58
2022-09-14T20:31:49.004Z,1.38
2022-09-14T20:34:20.555Z,1.30
2022-09-14T20:36:51.273Z,1.40
2022-09-14T20:39:20.250Z,1.42
2022-09-14T20:41:48.308Z,1.60
2022-09-14T20:44:22.032Z,1.42
2022-09-14T20:46:51.605Z,1.20
2022-09-14T20:51:54.317Z,1.45
2022-09-14T20:54:24.217Z,1.17
2022-09-14T20:56:52.321Z,1.23
2022-09-14T20:59:22.260Z,1.52
2022-09-14T21:01:52.683Z,1.40
2022-09-14T21:04:23.956Z,1.70
2022-09-14T21:06:55.289Z,1.40
2022-09-14T21:09:32.132Z,1.73
2022-09-14T21:12:00.923Z,1.60
2022-09-14T21:14:29.924Z,1.30
2022-09-14T21:17:00.384Z,1.42
2022-09-14T21:19:30.508Z,1.30
2022-09-14T21:22:02.320Z,1.40
2022-09-14T21:24:31.953Z,1.05
2022-09-14T21:29:29.812Z,1.30
2022-09-14T21:31:58.325Z,1.25
2022-09-14T21:34:26.889Z,1.08
2022-09-14T21:36:55.195Z,1.60
2022-09-14T21:39:28.144Z,1.27
2022-09-14T21:41:59.410Z,1.30
2022-09-14T21:44:33.152Z,1.35
2022-09-14T21:47:02.166Z,1.40
2022-09-14T21:49:30.739Z,1.30
2022-09-14T21:51:59.343Z,1.23
2022-09-14T21:54:29.883Z,1.30
2022-09-14T21:56:58.496Z,1.15
2022-09-14T21:59:26.812Z,1.13
2022-09-14T22:01:55.277Z,1.02
2022-09-14T22:04:25.289Z,1.00
2022-09-14T22:06:55.176Z,1.23
2022-09-14T22:09:25.926Z,1.10
2022-09-14T22:11:56.981Z,0.90
2022-09-14T22:14:26.767Z,0.80
2022-09-14T22:16:55.387Z,0.70
2022-09-14T22:19:25.999Z,1.05
2022-09-14T22:21:55.045Z,1.10
2022-09-14T22:24:26.082Z,1.10
2022-09-14T22:26:57.393Z,1.00
2022-09-14T22:29:26.314Z,1.10
2022-09-14T22:31:54.785Z,1.13
2022-09-14T22:34:24.515Z,0.90
2022-09-14T22:36:52.945Z,0.95
2022-09-14T22:39:21.447Z,0.93
2022-09-14T22:41:50.307Z,0.90
2022-09-14T22:44:20.045Z,0.90
2022-09-14T22:46:48.347Z,1.02
2022-09-14T22:49:16.821Z,1.10
2022-09-14T22:51:45.135Z,0.68
2022-09-14T22:54:13.399Z,1.27
2022-09-14T22:56:41.891Z,0.73
2022-09-14T22:59:11.357Z,0.95
2022-09-14T23:04:12.507Z,1.42
2022-09-14T23:06:42.387Z,1.13
2022-09-14T23:09:13.220Z,1.20
2022-09-14T23:11:42.262Z,1.20
2022-09-14T23:14:10.522Z,0.90
2022-09-14T23:16:40.704Z,1.27
2022-09-14T23:19:09.396Z,0.98
2022-09-14T23:21:37.704Z,1.27
2022-09-14T23:24:08.196Z,1.35
2022-09-14T23:26:36.686Z,1.10
2022-09-14T23:29:08.697Z,1.63
2022-09-14T23:31:37.170Z,1.20
2022-09-14T23:34:07.015Z,1.30
2022-09-14T23:36:35.431Z,1.38
2022-09-14T23:39:03.603Z,0.80
2022-09-14T23:41:32.597Z,0.93
2022-09-14T23:44:00.914Z,1.03
2022-09-14T23:46:29.174Z,1.13
2022-09-14T23:48:57.508Z,0.93
2022-09-14T23:51:27.182Z,1.08
2022-09-14T23:53:55.362Z,0.98
2022-09-14T23:56:23.782Z,0.73
2022-09-14T23:58:52.151Z,0.95
